createdAt,value
2019-03-23T00:02:11.107Z,10.86
2019-03-23T00:05:16.994Z,10.93
2019-03-23T00:08:22.897Z,10.63
2019-03-23T00:11:29.138Z,10.37
2019-03-23T00:14:35.022Z,10.49
2019-03-23T00:17:40.976Z,10.89
2019-03-23T00:20:46.902Z,11.04
2019-03-23T00:23:52.798Z,11.19
2019-03-23T00:26:58.728Z,10.94
2019-03-23T00:30:05.242Z,10.68
2019-03-23T00:33:11.255Z,10.72
2019-03-23T00:36:17.142Z,10.44
2019-03-23T00:39:23.037Z,10.48
2019-03-23T00:42:30.504Z,10.20
2019-03-23T00:45:36.380Z,10.29
2019-03-23T00:48:42.299Z,10.12
2019-03-23T00:51:48.272Z,10.09
2019-03-23T00:54:54.202Z,9.83
2019-03-23T00:58:00.141Z,9.70
2019-03-23T01:01:06.117Z,9.66
2019-03-23T01:04:12.059Z,9.42
2019-03-23T01:07:19.089Z,9.31
2019-03-23T01:10:25.127Z,9.38
2019-03-23T01:13:31.056Z,9.20
2019-03-23T01:16:36.991Z,9.17
2019-03-23T01:19:42.836Z,9.08
2019-03-23T01:22:48.766Z,9.17
2019-03-23T01:25:54.652Z,9.17
2019-03-23T01:29:00.607Z,9.37
2019-03-23T01:32:06.491Z,9.42
2019-03-23T01:35:13.859Z,9.26
2019-03-23T01:38:19.723Z,9.31
2019-03-23T01:41:25.579Z,9.25
2019-03-23T01:44:33.501Z,9.89
2019-03-23T01:47:39.417Z,9.92
2019-03-23T01:50:45.351Z,9.88
2019-03-23T01:53:51.253Z,10.60
2019-03-23T01:56:57.281Z,10.41
2019-03-23T02:00:03.658Z,10.34
2019-03-23T02:03:09.742Z,10.50
2019-03-23T02:06:15.694Z,10.34
2019-03-23T02:09:21.586Z,9.85
2019-03-23T02:12:27.480Z,9.59
2019-03-23T02:15:33.456Z,9.60
2019-03-23T02:18:39.371Z,9.75
2019-03-23T02:21:45.221Z,9.89
2019-03-23T02:24:51.182Z,10.00
2019-03-23T02:27:57.201Z,9.99
2019-03-23T02:31:03.280Z,9.71
2019-03-23T02:34:09.216Z,9.65
2019-03-23T02:37:27.263Z,9.57
2019-03-23T02:40:22.826Z,9.46
2019-03-23T02:43:30.734Z,9.35
2019-03-23T02:46:36.602Z,9.31
2019-03-23T02:49:42.617Z,9.08
2019-03-23T02:52:48.465Z,8.94
2019-03-23T02:55:54.382Z,8.79
2019-03-23T02:59:00.296Z,8.74
2019-03-23T03:02:06.296Z,8.58
2019-03-23T03:05:13.364Z,8.38
2019-03-23T03:08:19.284Z,8.29
2019-03-23T03:11:25.241Z,8.23
2019-03-23T03:14:31.291Z,8.11
2019-03-23T03:17:39.285Z,7.98
2019-03-23T03:20:45.278Z,7.83
2019-03-23T03:23:53.246Z,7.64
2019-03-23T03:26:59.247Z,7.58
2019-03-23T03:30:06.006Z,7.50
2019-03-23T03:33:12.118Z,7.40
2019-03-23T03:36:18.134Z,7.24
2019-03-23T03:39:24.127Z,7.10
2019-03-23T03:42:30.035Z,6.93
2019-03-23T03:45:37.561Z,6.86
2019-03-23T03:48:43.632Z,6.89
2019-03-23T03:51:49.688Z,6.75
2019-03-23T03:54:55.693Z,6.79
2019-03-23T03:58:01.662Z,6.71
2019-03-23T04:01:07.549Z,6.72
2019-03-23T04:04:13.438Z,6.66
2019-03-23T04:07:19.283Z,6.60
2019-03-23T04:10:25.286Z,6.57
2019-03-23T04:13:31.282Z,6.60
2019-03-23T04:16:37.157Z,6.53
2019-03-23T04:19:43.088Z,6.44
2019-03-23T04:22:49.028Z,6.44
2019-03-23T04:25:55.047Z,6.35
2019-03-23T04:29:01.047Z,6.24
2019-03-23T04:32:07.249Z,6.17
2019-03-23T04:35:13.252Z,6.12
2019-03-23T04:38:23.067Z,6.13
2019-03-23T04:41:27.815Z,6.08
2019-03-23T04:44:33.735Z,5.95
2019-03-23T04:47:39.707Z,5.99
2019-03-23T04:50:46.625Z,5.96
2019-03-23T04:53:52.545Z,6.02
2019-03-23T04:56:58.390Z,6.05
2019-03-23T05:00:04.602Z,6.08
2019-03-23T05:03:10.543Z,6.12
2019-03-23T05:06:16.501Z,6.08
2019-03-23T05:09:22.531Z,6.14
2019-03-23T05:12:28.466Z,6.10
2019-03-23T05:15:35.347Z,6.20
2019-03-23T05:18:41.248Z,6.19
2019-03-23T05:21:47.263Z,6.16
2019-03-23T05:24:53.118Z,6.13
2019-03-23T05:28:00.046Z,6.15
2019-03-23T05:31:07.110Z,6.26
2019-03-23T05:34:13.265Z,6.17
2019-03-23T05:37:19.182Z,6.12
2019-03-23T05:40:25.376Z,6.17
2019-03-23T05:43:31.672Z,6.24
2019-03-23T05:46:37.545Z,6.27
2019-03-23T05:49:43.445Z,6.33
2019-03-23T05:52:49.315Z,6.30
2019-03-23T05:55:55.242Z,6.26
2019-03-23T05:59:01.154Z,6.23
2019-03-23T06:02:07.086Z,6.23
2019-03-23T06:05:13.009Z,6.31
2019-03-23T06:08:18.906Z,6.33
2019-03-23T06:11:24.810Z,6.35
2019-03-23T06:14:30.700Z,6.51
2019-03-23T06:17:36.606Z,6.45
2019-03-23T06:20:42.642Z,6.39
2019-03-23T06:23:48.723Z,6.38
2019-03-23T06:26:57.229Z,6.54
2019-03-23T06:30:03.129Z,6.59
2019-03-23T06:33:09.414Z,6.66
2019-03-23T06:36:15.445Z,6.69
2019-03-23T06:39:21.304Z,6.66
2019-03-23T06:42:28.266Z,6.72
2019-03-23T06:45:34.261Z,6.74
2019-03-23T06:48:41.494Z,6.72
2019-03-23T06:51:47.364Z,6.87
2019-03-23T06:54:54.491Z,6.90
2019-03-23T06:58:00.461Z,6.93
2019-03-23T07:01:06.401Z,6.93
2019-03-23T07:04:12.322Z,6.94
2019-03-23T07:07:18.405Z,6.81
2019-03-23T07:10:24.529Z,6.91
2019-03-23T07:13:30.464Z,6.98
2019-03-23T07:16:36.426Z,7.03
2019-03-23T07:19:42.343Z,7.02
2019-03-23T07:22:48.251Z,7.05
2019-03-23T07:25:54.226Z,7.09
2019-03-23T07:29:00.526Z,7.16
2019-03-23T07:32:06.991Z,7.26
2019-03-23T07:35:13.168Z,7.10
2019-03-23T07:38:19.110Z,7.04
2019-03-23T07:41:25.029Z,7.10
2019-03-23T07:44:30.916Z,6.99
2019-03-23T07:47:36.867Z,6.75
2019-03-23T07:50:43.255Z,6.56
2019-03-23T07:53:49.146Z,6.50
2019-03-23T07:56:55.159Z,6.60
2019-03-23T08:00:01.199Z,6.49
2019-03-23T08:03:07.040Z,6.40
2019-03-23T08:06:13.039Z,6.43
2019-03-23T08:09:20.663Z,6.50
2019-03-23T08:12:26.568Z,6.52
2019-03-23T08:15:35.715Z,6.42
2019-03-23T08:18:41.714Z,6.54
2019-03-23T08:21:48.042Z,6.59
2019-03-23T08:24:55.130Z,6.63
2019-03-23T08:28:01.160Z,6.76
2019-03-23T08:31:07.082Z,6.76
2019-03-23T08:34:13.051Z,6.99
2019-03-23T08:37:19.062Z,6.81
2019-03-23T08:40:25.146Z,6.87
2019-03-23T08:43:31.010Z,6.80
2019-03-23T08:46:37.088Z,6.66
2019-03-23T08:49:44.459Z,6.78
2019-03-23T08:52:50.433Z,6.99
2019-03-23T08:55:56.461Z,7.03
2019-03-23T08:59:03.541Z,7.11
2019-03-23T09:02:09.396Z,7.39
2019-03-23T09:05:15.362Z,7.37
2019-03-23T09:08:21.344Z,7.42
2019-03-23T09:11:27.231Z,7.86
2019-03-23T09:14:33.215Z,7.77
2019-03-23T09:17:39.411Z,8.09
2019-03-23T09:20:45.334Z,8.64
2019-03-23T09:23:53.884Z,8.96
2019-03-23T09:26:59.829Z,9.15
2019-03-23T09:30:06.435Z,9.05
2019-03-23T09:33:13.286Z,9.31
2019-03-23T09:36:22.797Z,9.44
2019-03-23T09:39:27.288Z,9.64
2019-03-23T09:42:33.185Z,9.23
2019-03-23T09:45:39.114Z,9.20
2019-03-23T09:48:45.169Z,9.63
2019-03-23T09:51:52.866Z,9.29
2019-03-23T09:54:58.785Z,9.88
2019-03-23T09:58:04.719Z,9.59
2019-03-23T10:01:10.704Z,9.42
2019-03-23T10:04:16.705Z,9.41
2019-03-23T10:07:22.739Z,9.67
2019-03-23T10:10:28.614Z,9.45
2019-03-23T10:13:34.555Z,9.46
2019-03-23T10:16:40.497Z,9.69
2019-03-23T10:19:46.522Z,10.05
2019-03-23T10:22:52.435Z,10.46
2019-03-23T10:25:58.466Z,10.53
2019-03-23T10:29:04.406Z,10.95
2019-03-23T10:32:12.844Z,10.74
2019-03-23T10:35:18.865Z,10.53
2019-03-23T10:38:24.914Z,10.74
2019-03-23T10:41:30.807Z,11.40
2019-03-23T10:44:36.715Z,11.15
2019-03-23T10:47:42.834Z,11.13
2019-03-23T10:50:48.877Z,11.08
2019-03-23T10:53:54.749Z,11.17
2019-03-23T10:57:00.713Z,11.63
2019-03-23T11:00:07.467Z,12.01
2019-03-23T11:03:14.945Z,11.92
2019-03-23T11:06:21.035Z,11.69
2019-03-23T11:09:26.995Z,11.62
2019-03-23T11:12:32.893Z,11.15
2019-03-23T11:15:38.880Z,10.95
2019-03-23T11:18:46.008Z,11.01
2019-03-23T11:21:51.974Z,11.74
2019-03-23T11:24:57.936Z,11.99
2019-03-23T11:28:04.220Z,11.99
2019-03-23T11:31:10.106Z,11.59
2019-03-23T11:34:18.089Z,12.31
2019-03-23T11:37:23.801Z,12.19
2019-03-23T11:40:31.848Z,12.65
2019-03-23T11:43:37.599Z,12.73
2019-03-23T11:46:44.035Z,12.17
2019-03-23T11:49:49.940Z,11.73
2019-03-23T11:52:55.797Z,12.25
2019-03-23T11:56:01.813Z,12.19
2019-03-23T11:59:07.744Z,11.98
2019-03-23T12:02:13.741Z,11.75
2019-03-23T12:05:19.695Z,11.49
2019-03-23T12:08:25.628Z,11.58
2019-03-23T12:11:32.570Z,11.83
2019-03-23T12:14:38.548Z,12.08
2019-03-23T12:17:47.628Z,11.91
2019-03-23T12:20:53.556Z,12.48
2019-03-23T12:23:59.518Z,12.88
2019-03-23T12:27:05.458Z,13.10
2019-03-23T12:30:13.969Z,13.19
2019-03-23T12:33:21.519Z,13.01
2019-03-23T12:36:27.605Z,13.40
2019-03-23T12:39:33.633Z,13.44
2019-03-23T12:42:39.564Z,13.86
2019-03-23T12:45:45.727Z,14.00
2019-03-23T12:48:51.769Z,13.95
2019-03-23T12:51:57.728Z,13.85
2019-03-23T12:55:03.718Z,14.09
2019-03-23T12:58:09.759Z,14.24
2019-03-23T13:01:16.019Z,14.12
2019-03-23T13:04:22.147Z,14.36
2019-03-23T13:07:28.098Z,14.58
2019-03-23T13:10:34.029Z,14.70
2019-03-23T13:13:39.846Z,13.86
2019-03-23T13:16:45.820Z,14.56
2019-03-23T13:19:51.938Z,14.63
2019-03-23T13:22:57.902Z,14.74
2019-03-23T13:26:03.858Z,15.18
2019-03-23T13:29:09.812Z,14.62
2019-03-23T13:32:16.732Z,14.28
2019-03-23T13:35:22.712Z,14.38
2019-03-23T13:38:28.710Z,14.33
2019-03-23T13:41:41.196Z,14.68
2019-03-23T13:44:42.351Z,14.05
2019-03-23T13:47:48.385Z,14.26
2019-03-23T13:50:54.337Z,14.60
2019-03-23T13:54:00.376Z,14.08
2019-03-23T13:57:06.316Z,14.45
2019-03-23T14:00:12.313Z,13.99
2019-03-23T14:03:18.202Z,14.06
2019-03-23T14:06:25.733Z,13.79
2019-03-23T14:09:34.227Z,13.78
2019-03-23T14:12:42.202Z,13.52
2019-03-23T14:15:48.499Z,13.47
2019-03-23T14:18:54.413Z,13.21
2019-03-23T14:22:00.473Z,13.19
2019-03-23T14:25:06.974Z,13.14
2019-03-23T14:28:12.908Z,13.08
2019-03-23T14:31:23.527Z,13.11
2019-03-23T14:34:29.383Z,12.90
2019-03-23T14:37:35.362Z,12.78
2019-03-23T14:40:41.475Z,12.79
2019-03-23T14:43:47.457Z,12.61
2019-03-23T14:46:53.391Z,12.32
2019-03-23T14:49:59.457Z,12.34
2019-03-23T14:53:08.533Z,12.27
2019-03-23T14:56:14.479Z,12.33
2019-03-23T14:59:22.478Z,12.20
2019-03-23T15:02:28.499Z,12.08
2019-03-23T15:05:37.411Z,12.15
2019-03-23T15:08:43.396Z,12.08
2019-03-23T15:11:49.321Z,11.96
2019-03-23T15:14:55.205Z,11.92
2019-03-23T15:18:01.071Z,11.88
2019-03-23T15:21:07.118Z,11.94
2019-03-23T15:24:13.004Z,11.99
2019-03-23T15:27:18.941Z,11.75
2019-03-23T15:30:24.833Z,11.78
2019-03-23T15:33:30.790Z,11.74
2019-03-23T15:36:36.717Z,11.79
2019-03-23T15:39:42.601Z,11.78
2019-03-23T15:42:48.572Z,11.70
2019-03-23T15:45:54.993Z,11.74
2019-03-23T15:49:00.940Z,11.71
2019-03-23T15:52:08.063Z,11.62
2019-03-23T15:55:14.035Z,11.46
2019-03-23T15:58:19.920Z,11.30
2019-03-23T16:01:25.935Z,11.33
2019-03-23T16:04:31.881Z,11.23
2019-03-23T16:07:38.007Z,11.13
2019-03-23T16:10:44.887Z,11.05
2019-03-23T16:13:50.896Z,10.93
2019-03-23T16:16:56.853Z,10.81
2019-03-23T16:20:02.858Z,10.70
2019-03-23T16:23:08.953Z,10.65
2019-03-23T16:26:14.853Z,10.68
2019-03-23T16:29:20.713Z,10.72
2019-03-23T16:32:26.635Z,10.72
2019-03-23T16:35:32.900Z,10.50
2019-03-23T16:38:51.657Z,10.58
2019-03-23T16:41:57.518Z,10.49
2019-03-23T16:45:03.474Z,10.37
2019-03-23T16:48:09.483Z,10.30
2019-03-23T16:51:15.441Z,10.20
2019-03-23T16:54:21.393Z,10.18
2019-03-23T16:57:27.384Z,10.20
2019-03-23T17:00:37.753Z,10.11
2019-03-23T17:03:44.962Z,10.01
2019-03-23T17:06:51.237Z,9.97
2019-03-23T17:09:57.174Z,9.91
2019-03-23T17:13:03.086Z,10.09
2019-03-23T17:16:10.096Z,9.93
2019-03-23T17:19:16.448Z,9.91
2019-03-23T17:22:22.698Z,9.85
2019-03-23T17:25:29.816Z,9.67
2019-03-23T17:28:35.771Z,9.69
2019-03-23T17:31:41.673Z,9.70
2019-03-23T17:34:47.637Z,9.69
2019-03-23T17:37:55.218Z,9.69
2019-03-23T17:41:01.159Z,9.63
2019-03-23T17:44:08.177Z,9.60
2019-03-23T17:47:14.043Z,9.57
2019-03-23T17:50:19.959Z,9.57
2019-03-23T17:53:25.978Z,9.69
2019-03-23T17:56:32.053Z,9.74
2019-03-23T17:59:40.667Z,9.67
2019-03-23T18:02:46.698Z,9.61
2019-03-23T18:05:52.606Z,9.59
2019-03-23T18:08:58.520Z,9.76
2019-03-23T18:12:07.940Z,9.79
2019-03-23T18:15:14.227Z,9.55
2019-03-23T18:18:20.207Z,9.71
2019-03-23T18:21:26.201Z,9.32
2019-03-23T18:24:32.172Z,9.23
2019-03-23T18:27:38.173Z,9.21
2019-03-23T18:30:45.106Z,9.17
2019-03-23T18:33:51.048Z,9.32
2019-03-23T18:36:57.308Z,9.23
2019-03-23T18:40:03.273Z,9.03
2019-03-23T18:43:09.267Z,9.14
2019-03-23T18:46:16.499Z,9.10
2019-03-23T18:49:22.429Z,9.01
2019-03-23T18:52:28.384Z,8.83
2019-03-23T18:55:34.368Z,8.79
2019-03-23T18:58:40.279Z,8.74
2019-03-23T19:01:46.157Z,8.74
2019-03-23T19:04:52.283Z,8.79
2019-03-23T19:07:59.678Z,8.75
2019-03-23T19:11:05.758Z,8.80
2019-03-23T19:14:12.370Z,8.83
2019-03-23T19:17:18.427Z,8.86
2019-03-23T19:20:24.383Z,8.76
2019-03-23T19:23:30.374Z,8.71
2019-03-23T19:26:39.568Z,8.75
2019-03-23T19:29:45.523Z,8.94
2019-03-23T19:32:51.432Z,8.82
2019-03-23T19:35:57.339Z,8.64
2019-03-23T19:39:05.105Z,8.63
2019-03-23T19:42:11.029Z,8.64
2019-03-23T19:45:16.998Z,8.59
2019-03-23T19:48:22.927Z,8.52
2019-03-23T19:51:28.967Z,8.50
2019-03-23T19:54:34.943Z,8.52
2019-03-23T19:57:41.018Z,8.35
2019-03-23T20:00:46.935Z,8.36
2019-03-23T20:03:52.968Z,8.34
2019-03-23T20:06:58.917Z,8.26
2019-03-23T20:10:05.328Z,8.11
2019-03-23T20:13:11.470Z,7.91
2019-03-23T20:16:17.366Z,7.84
2019-03-23T20:19:23.294Z,7.69
2019-03-23T20:22:29.245Z,7.61
2019-03-23T20:25:35.169Z,7.68
2019-03-23T20:28:41.212Z,7.56
2019-03-23T20:31:47.072Z,7.57
2019-03-23T20:34:53.062Z,7.39
2019-03-23T20:37:59.003Z,7.43
2019-03-23T20:41:05.068Z,7.15
2019-03-23T20:44:11.028Z,7.17
2019-03-23T20:47:16.956Z,6.96
2019-03-23T20:50:22.909Z,6.94
2019-03-23T20:53:29.021Z,7.10
2019-03-23T20:56:34.952Z,6.97
2019-03-23T20:59:40.980Z,6.81
2019-03-23T21:02:46.963Z,6.96
2019-03-23T21:05:52.881Z,6.93
2019-03-23T21:08:58.777Z,6.80
2019-03-23T21:12:04.711Z,6.93
2019-03-23T21:15:12.138Z,6.61
2019-03-23T21:18:18.007Z,6.71
2019-03-23T21:21:25.962Z,6.61
2019-03-23T21:24:31.897Z,6.59
2019-03-23T21:27:37.783Z,6.57
2019-03-23T21:30:43.738Z,6.53
2019-03-23T21:33:50.137Z,6.37
2019-03-23T21:36:56.072Z,6.33
2019-03-23T21:40:01.993Z,6.17
2019-03-23T21:43:08.903Z,6.36
2019-03-23T21:46:14.874Z,6.26
2019-03-23T21:49:20.831Z,6.16
2019-03-23T21:52:26.782Z,6.10
2019-03-23T21:55:32.747Z,6.19
2019-03-23T21:58:38.641Z,6.17
2019-03-23T22:01:44.716Z,6.15
2019-03-23T22:04:51.957Z,6.33
2019-03-23T22:07:57.864Z,6.25
2019-03-23T22:11:03.747Z,6.28
2019-03-23T22:14:09.647Z,6.45
2019-03-23T22:17:15.507Z,6.46
2019-03-23T22:20:21.462Z,6.16
2019-03-23T22:23:27.331Z,6.10
2019-03-23T22:26:33.277Z,5.97
2019-03-23T22:29:39.426Z,5.92
2019-03-23T22:32:45.559Z,5.78
2019-03-23T22:35:54.695Z,5.62
2019-03-23T22:39:00.746Z,5.50
2019-03-23T22:42:07.445Z,5.34
2019-03-23T22:45:13.600Z,5.24
2019-03-23T22:48:19.498Z,5.18
2019-03-23T22:51:25.377Z,5.15
2019-03-23T22:54:31.365Z,5.10
2019-03-23T22:57:37.336Z,5.16
2019-03-23T23:00:48.141Z,5.13
2019-03-23T23:03:54.246Z,5.10
2019-03-23T23:07:00.126Z,5.05
2019-03-23T23:10:06.762Z,4.96
2019-03-23T23:13:12.681Z,4.94
2019-03-23T23:16:19.066Z,4.84
2019-03-23T23:19:25.828Z,4.76
2019-03-23T23:22:31.762Z,4.68
2019-03-23T23:25:37.754Z,4.54
2019-03-23T23:28:43.677Z,4.48
2019-03-23T23:31:49.547Z,4.44
2019-03-23T23:34:56.459Z,4.46
2019-03-23T23:38:02.460Z,4.48
2019-03-23T23:41:08.457Z,4.29
2019-03-23T23:44:14.406Z,4.36
2019-03-23T23:47:20.260Z,4.31
2019-03-23T23:50:26.208Z,4.28
2019-03-23T23:53:32.149Z,4.24
2019-03-23T23:56:38.160Z,4.27
2019-03-23T23:59:44.087Z,4.34
